This is the latest recevied weather packets stored in our database for station/object HARMAJA. If no packets are shown the sender has not sent any weather packets the latest 10 day(s).
| Time | Temp. | Humidity | Pressure | Rain* | Wind** | Luminosity | Snow |
|---|---|---|---|---|---|---|---|
| 1777789625 | 5.56° C | 92% | 1006.5 hPa | - | - | - | - |
| 1777788425 | 5.56° C | 92% | 1006.6 hPa | - | - | - | - |
| 1777787225 | 6.11° C | 90% | 1006.2 hPa | - | - | - | - |
| 1777786026 | 6.11° C | 92% | 1006.1 hPa | - | - | - | - |
| 1777784825 | 5.56° C | 93% | 1006 hPa | - | - | - | - |
| 1777783625 | 5.56° C | 94% | 1005.9 hPa | - | - | - | - |
| 1777782425 | 5.56° C | 93% | 1005.8 hPa | - | - | - | - |
| 1777781225 | 5.56° C | 93% | 1005.9 hPa | - | - | - | - |
| 1777780025 | 5.56° C | 93% | 1005.4 hPa | - | - | - | - |
| 1777778825 | 5.56° C | 92% | 1005.7 hPa | - | - | - | - |
| 1777777625 | 5.56° C | 92% | 1005.8 hPa | - | - | - | - |
| 1777776425 | 5.56° C | 92% | 1005.7 hPa | - | - | - | - |
| 1777775224 | 5.56° C | 91% | 1005.6 hPa | - | - | - | - |
| 1777774024 | 5.56° C | 91% | 1005.7 hPa | - | - | - | - |
| 1777772825 | 5.56° C | 90% | 1005.8 hPa | - | - | - | - |
| 1777771625 | 5.56° C | 89% | 1005.5 hPa | - | - | - | - |
| 1777770425 | 5.56° C | 90% | 1005.8 hPa | - | - | - | - |
| 1777764424 | 5.56° C | 89% | 1006.8 hPa | - | - | - | - |
| 1777760825 | 6.11° C | 87% | 1007.4 hPa | - | - | - | - |
| 1777759624 | 6.11° C | 87% | 1007.6 hPa | - | - | - | - |
| 1777757224 | 7.22° C | 81% | 1007.9 hPa | - | - | - | - |
| 1777753624 | 6.11° C | 85% | 1008.6 hPa | - | - | - | - |
| 1777752424 | 6.11° C | 85% | 1008.7 hPa | - | - | - | - |
| 1777747623 | 6.11° C | 84% | 1009 hPa | - | - | - | - |
| 1777745223 | 6.67° C | 83% | 1009 hPa | - | - | - | - |
* Rain since midnight (hover to see other rain measurements)
** Current wind speed in m/s (hover to see current wind gust speed)